sensor_id;sensor_type;location;lat;lon;timestamp;P1;durP1;ratioP1;P2;durP2;ratioP2
47804;SDS011;33568;45.286;9.900;2023-07-13T00:01:31;2.92;;;1.60;;
47804;SDS011;33568;45.286;9.900;2023-07-13T00:03:58;6.07;;;2.83;;
47804;SDS011;33568;45.286;9.900;2023-07-13T00:06:25;4.47;;;1.50;;
47804;SDS011;33568;45.286;9.900;2023-07-13T00:08:56;3.40;;;1.73;;
47804;SDS011;33568;45.286;9.900;2023-07-13T00:11:22;2.83;;;1.60;;
47804;SDS011;33568;45.286;9.900;2023-07-13T00:13:49;1.90;;;1.20;;
47804;SDS011;33568;45.286;9.900;2023-07-13T00:16:15;4.35;;;1.85;;
47804;SDS011;33568;45.286;9.900;2023-07-13T00:18:42;3.97;;;1.58;;
47804;SDS011;33568;45.286;9.900;2023-07-13T00:21:08;5.93;;;2.00;;
47804;SDS011;33568;45.286;9.900;2023-07-13T00:23:35;3.65;;;2.05;;
47804;SDS011;33568;45.286;9.900;2023-07-13T00:26:04;4.40;;;1.80;;
47804;SDS011;33568;45.286;9.900;2023-07-13T00:28:32;3.28;;;1.70;;
47804;SDS011;33568;45.286;9.900;2023-07-13T00:31:00;5.28;;;2.15;;
47804;SDS011;33568;45.286;9.900;2023-07-13T00:33:27;3.38;;;1.98;;
47804;SDS011;33568;45.286;9.900;2023-07-13T00:35:57;3.97;;;1.60;;
47804;SDS011;33568;45.286;9.900;2023-07-13T00:38:23;5.82;;;1.70;;
47804;SDS011;33568;45.286;9.900;2023-07-13T00:40:50;2.45;;;1.65;;
47804;SDS011;33568;45.286;9.900;2023-07-13T00:43:18;4.53;;;1.65;;
47804;SDS011;33568;45.286;9.900;2023-07-13T00:48:19;4.07;;;2.03;;
47804;SDS011;33568;45.286;9.900;2023-07-13T00:50:48;11.68;;;2.58;;
47804;SDS011;33568;45.286;9.900;2023-07-13T00:53:18;11.48;;;2.63;;
47804;SDS011;33568;45.286;9.900;2023-07-13T00:55:46;4.38;;;2.17;;
47804;SDS011;33568;45.286;9.900;2023-07-13T00:58:16;2.83;;;1.60;;
47804;SDS011;33568;45.286;9.900;2023-07-13T01:00:43;1.90;;;1.60;;
47804;SDS011;33568;45.286;9.900;2023-07-13T01:03:10;4.88;;;2.35;;
47804;SDS011;33568;45.286;9.900;2023-07-13T01:05:37;5.95;;;2.08;;
47804;SDS011;33568;45.286;9.900;2023-07-13T01:08:04;6.82;;;2.35;;
47804;SDS011;33568;45.286;9.900;2023-07-13T01:10:33;2.63;;;1.80;;
47804;SDS011;33568;45.286;9.900;2023-07-13T01:13:07;3.05;;;1.80;;
47804;SDS011;33568;45.286;9.900;2023-07-13T01:15:42;4.88;;;2.20;;
47804;SDS011;33568;45.286;9.900;2023-07-13T01:18:13;6.00;;;2.17;;
47804;SDS011;33568;45.286;9.900;2023-07-13T01:21:01;4.45;;;1.60;;
47804;SDS011;33568;45.286;9.900;2023-07-13T01:23:29;5.30;;;2.03;;
47804;SDS011;33568;45.286;9.900;2023-07-13T01:25:57;5.00;;;1.90;;
47804;SDS011;33568;45.286;9.900;2023-07-13T01:28:24;5.03;;;1.80;;
47804;SDS011;33568;45.286;9.900;2023-07-13T01:30:55;5.13;;;1.83;;
47804;SDS011;33568;45.286;9.900;2023-07-13T01:33:23;3.60;;;2.05;;
47804;SDS011;33568;45.286;9.900;2023-07-13T01:35:51;3.38;;;1.75;;
47804;SDS011;33568;45.286;9.900;2023-07-13T01:38:18;7.32;;;2.40;;
47804;SDS011;33568;45.286;9.900;2023-07-13T01:40:47;3.50;;;1.90;;
47804;SDS011;33568;45.286;9.900;2023-07-13T01:43:13;5.13;;;2.38;;
47804;SDS011;33568;45.286;9.900;2023-07-13T01:45:40;8.52;;;2.10;;
47804;SDS011;33568;45.286;9.900;2023-07-13T01:48:09;2.95;;;1.98;;
47804;SDS011;33568;45.286;9.900;2023-07-13T01:50:36;4.20;;;1.85;;
47804;SDS011;33568;45.286;9.900;2023-07-13T01:53:03;4.00;;;1.70;;
47804;SDS011;33568;45.286;9.900;2023-07-13T01:55:30;5.50;;;2.28;;
47804;SDS011;33568;45.286;9.900;2023-07-13T01:57:57;2.72;;;1.60;;
47804;SDS011;33568;45.286;9.900;2023-07-13T02:00:24;4.43;;;2.00;;
47804;SDS011;33568;45.286;9.900;2023-07-13T02:02:50;5.68;;;2.30;;
47804;SDS011;33568;45.286;9.900;2023-07-13T02:05:17;5.18;;;1.85;;
47804;SDS011;33568;45.286;9.900;2023-07-13T02:07:45;4.03;;;1.77;;
47804;SDS011;33568;45.286;9.900;2023-07-13T02:10:11;6.53;;;2.45;;
47804;SDS011;33568;45.286;9.900;2023-07-13T02:12:39;6.40;;;2.90;;
47804;SDS011;33568;45.286;9.900;2023-07-13T02:15:06;7.30;;;2.65;;
47804;SDS011;33568;45.286;9.900;2023-07-13T02:17:33;6.00;;;2.58;;
47804;SDS011;33568;45.286;9.900;2023-07-13T02:20:01;5.78;;;2.38;;
47804;SDS011;33568;45.286;9.900;2023-07-13T02:22:29;5.82;;;2.63;;
47804;SDS011;33568;45.286;9.900;2023-07-13T02:24:57;4.78;;;2.33;;
47804;SDS011;33568;45.286;9.900;2023-07-13T02:27:23;4.95;;;2.72;;
47804;SDS011;33568;45.286;9.900;2023-07-13T02:29:50;4.30;;;2.35;;
47804;SDS011;33568;45.286;9.900;2023-07-13T02:32:21;4.18;;;2.58;;
47804;SDS011;33568;45.286;9.900;2023-07-13T02:34:47;5.78;;;2.70;;
47804;SDS011;33568;45.286;9.900;2023-07-13T02:37:14;7.10;;;2.85;;
47804;SDS011;33568;45.286;9.900;2023-07-13T02:39:40;3.60;;;1.95;;
47804;SDS011;33568;45.286;9.900;2023-07-13T02:42:07;3.63;;;2.22;;
47804;SDS011;33568;45.286;9.900;2023-07-13T02:44:33;4.32;;;2.88;;
47804;SDS011;33568;45.286;9.900;2023-07-13T02:47:00;4.65;;;2.40;;
47804;SDS011;33568;45.286;9.900;2023-07-13T02:49:27;4.32;;;2.53;;
47804;SDS011;33568;45.286;9.900;2023-07-13T02:51:53;7.05;;;2.55;;
47804;SDS011;33568;45.286;9.900;2023-07-13T02:54:20;4.38;;;2.10;;
47804;SDS011;33568;45.286;9.900;2023-07-13T02:56:46;2.95;;;2.20;;
47804;SDS011;33568;45.286;9.900;2023-07-13T02:59:13;6.78;;;1.83;;
47804;SDS011;33568;45.286;9.900;2023-07-13T03:01:40;2.90;;;2.50;;
47804;SDS011;33568;45.286;9.900;2023-07-13T03:04:07;5.28;;;3.47;;
47804;SDS011;33568;45.286;9.900;2023-07-13T03:06:34;3.35;;;2.42;;
47804;SDS011;33568;45.286;9.900;2023-07-13T03:09:02;8.73;;;2.78;;
47804;SDS011;33568;45.286;9.900;2023-07-13T03:11:31;5.82;;;3.38;;
47804;SDS011;33568;45.286;9.900;2023-07-13T03:14:13;4.28;;;2.17;;
47804;SDS011;33568;45.286;9.900;2023-07-13T03:16:40;5.15;;;2.92;;
47804;SDS011;33568;45.286;9.900;2023-07-13T03:19:07;3.80;;;2.50;;
47804;SDS011;33568;45.286;9.900;2023-07-13T03:21:34;3.42;;;2.08;;
47804;SDS011;33568;45.286;9.900;2023-07-13T03:24:01;5.40;;;3.60;;
47804;SDS011;33568;45.286;9.900;2023-07-13T03:26:28;10.40;;;2.60;;
47804;SDS011;33568;45.286;9.900;2023-07-13T03:28:56;5.85;;;2.58;;
47804;SDS011;33568;45.286;9.900;2023-07-13T03:31:27;4.28;;;3.00;;
47804;SDS011;33568;45.286;9.900;2023-07-13T03:33:56;9.23;;;3.53;;
47804;SDS011;33568;45.286;9.900;2023-07-13T03:36:28;7.40;;;3.08;;
47804;SDS011;33568;45.286;9.900;2023-07-13T03:38:59;7.93;;;3.22;;
47804;SDS011;33568;45.286;9.900;2023-07-13T03:41:39;5.25;;;2.35;;
47804;SDS011;33568;45.286;9.900;2023-07-13T03:44:06;4.40;;;2.95;;
47804;SDS011;33568;45.286;9.900;2023-07-13T03:46:33;4.70;;;3.15;;
47804;SDS011;33568;45.286;9.900;2023-07-13T03:49:00;4.18;;;2.38;;
47804;SDS011;33568;45.286;9.900;2023-07-13T03:51:27;7.50;;;3.58;;
47804;SDS011;33568;45.286;9.900;2023-07-13T03:53:54;4.63;;;2.78;;
47804;SDS011;33568;45.286;9.900;2023-07-13T03:56:21;12.05;;;3.70;;
47804;SDS011;33568;45.286;9.900;2023-07-13T03:58:49;3.95;;;2.70;;
47804;SDS011;33568;45.286;9.900;2023-07-13T04:01:19;8.40;;;4.95;;
47804;SDS011;33568;45.286;9.900;2023-07-13T04:03:47;6.13;;;4.13;;
47804;SDS011;33568;45.286;9.900;2023-07-13T04:06:17;7.80;;;3.80;;
47804;SDS011;33568;45.286;9.900;2023-07-13T04:08:51;4.85;;;3.83;;
47804;SDS011;33568;45.286;9.900;2023-07-13T04:11:20;7.28;;;5.22;;
47804;SDS011;33568;45.286;9.900;2023-07-13T04:13:47;6.70;;;4.57;;
47804;SDS011;33568;45.286;9.900;2023-07-13T04:16:14;8.77;;;5.00;;
47804;SDS011;33568;45.286;9.900;2023-07-13T04:18:42;7.65;;;4.32;;
47804;SDS011;33568;45.286;9.900;2023-07-13T04:21:09;5.50;;;4.00;;
47804;SDS011;33568;45.286;9.900;2023-07-13T04:23:37;6.43;;;4.22;;
47804;SDS011;33568;45.286;9.900;2023-07-13T04:26:05;7.43;;;4.30;;
47804;SDS011;33568;45.286;9.900;2023-07-13T04:28:32;8.60;;;5.28;;
47804;SDS011;33568;45.286;9.900;2023-07-13T04:30:59;6.20;;;4.00;;
47804;SDS011;33568;45.286;9.900;2023-07-13T04:33:26;15.60;;;5.45;;
47804;SDS011;33568;45.286;9.900;2023-07-13T04:35:53;8.88;;;4.80;;
47804;SDS011;33568;45.286;9.900;2023-07-13T04:38:25;7.65;;;5.90;;
47804;SDS011;33568;45.286;9.900;2023-07-13T04:40:55;10.40;;;6.03;;
47804;SDS011;33568;45.286;9.900;2023-07-13T04:43:23;9.40;;;6.03;;
47804;SDS011;33568;45.286;9.900;2023-07-13T04:45:50;7.72;;;4.65;;
47804;SDS011;33568;45.286;9.900;2023-07-13T04:48:18;6.80;;;5.38;;
47804;SDS011;33568;45.286;9.900;2023-07-13T04:50:45;10.85;;;5.18;;
47804;SDS011;33568;45.286;9.900;2023-07-13T04:53:12;15.57;;;5.90;;
47804;SDS011;33568;45.286;9.900;2023-07-13T04:55:39;11.82;;;4.70;;
47804;SDS011;33568;45.286;9.900;2023-07-13T04:58:06;7.25;;;4.43;;
47804;SDS011;33568;45.286;9.900;2023-07-13T05:00:33;16.65;;;6.10;;
47804;SDS011;33568;45.286;9.900;2023-07-13T05:02:59;8.05;;;5.43;;
47804;SDS011;33568;45.286;9.900;2023-07-13T05:05:26;8.23;;;5.43;;
47804;SDS011;33568;45.286;9.900;2023-07-13T05:07:53;13.27;;;4.97;;
47804;SDS011;33568;45.286;9.900;2023-07-13T05:10:20;7.68;;;4.95;;
47804;SDS011;33568;45.286;9.900;2023-07-13T05:12:46;12.25;;;5.68;;
47804;SDS011;33568;45.286;9.900;2023-07-13T05:15:13;8.95;;;5.00;;
47804;SDS011;33568;45.286;9.900;2023-07-13T05:17:40;11.77;;;5.80;;
47804;SDS011;33568;45.286;9.900;2023-07-13T05:20:08;8.82;;;5.60;;
47804;SDS011;33568;45.286;9.900;2023-07-13T05:22:35;11.73;;;5.53;;
47804;SDS011;33568;45.286;9.900;2023-07-13T05:25:04;9.00;;;5.70;;
47804;SDS011;33568;45.286;9.900;2023-07-13T05:27:32;7.10;;;5.00;;
47804;SDS011;33568;45.286;9.900;2023-07-13T05:29:59;6.25;;;4.47;;
47804;SDS011;33568;45.286;9.900;2023-07-13T05:32:25;9.90;;;5.15;;
47804;SDS011;33568;45.286;9.900;2023-07-13T05:34:52;7.70;;;5.43;;
47804;SDS011;33568;45.286;9.900;2023-07-13T05:37:18;5.82;;;4.68;;
47804;SDS011;33568;45.286;9.900;2023-07-13T05:39:45;7.20;;;5.63;;
47804;SDS011;33568;45.286;9.900;2023-07-13T05:42:11;8.25;;;4.72;;
47804;SDS011;33568;45.286;9.900;2023-07-13T05:44:38;8.45;;;5.53;;
47804;SDS011;33568;45.286;9.900;2023-07-13T05:47:05;7.75;;;5.40;;
47804;SDS011;33568;45.286;9.900;2023-07-13T05:49:32;6.68;;;4.10;;
47804;SDS011;33568;45.286;9.900;2023-07-13T05:51:58;10.80;;;5.97;;
47804;SDS011;33568;45.286;9.900;2023-07-13T05:54:25;8.80;;;5.90;;
47804;SDS011;33568;45.286;9.900;2023-07-13T05:56:52;8.35;;;4.85;;
47804;SDS011;33568;45.286;9.900;2023-07-13T05:59:18;8.45;;;4.40;;
47804;SDS011;33568;45.286;9.900;2023-07-13T06:01:45;7.10;;;5.70;;
47804;SDS011;33568;45.286;9.900;2023-07-13T06:04:11;7.10;;;4.68;;
47804;SDS011;33568;45.286;9.900;2023-07-13T06:06:38;9.23;;;5.22;;
47804;SDS011;33568;45.286;9.900;2023-07-13T06:09:04;10.48;;;4.97;;
47804;SDS011;33568;45.286;9.900;2023-07-13T06:11:31;9.85;;;4.50;;
47804;SDS011;33568;45.286;9.900;2023-07-13T06:13:57;9.75;;;5.82;;
47804;SDS011;33568;45.286;9.900;2023-07-13T06:16:24;7.70;;;5.57;;
47804;SDS011;33568;45.286;9.900;2023-07-13T06:18:50;11.85;;;6.03;;
47804;SDS011;33568;45.286;9.900;2023-07-13T06:21:19;5.07;;;3.58;;
47804;SDS011;33568;45.286;9.900;2023-07-13T06:23:48;7.53;;;4.80;;
47804;SDS011;33568;45.286;9.900;2023-07-13T06:26:16;12.70;;;5.32;;
47804;SDS011;33568;45.286;9.900;2023-07-13T06:28:44;8.43;;;4.05;;
47804;SDS011;33568;45.286;9.900;2023-07-13T06:31:10;8.95;;;4.78;;
47804;SDS011;33568;45.286;9.900;2023-07-13T06:33:38;7.97;;;4.70;;
47804;SDS011;33568;45.286;9.900;2023-07-13T06:36:05;8.60;;;5.40;;
47804;SDS011;33568;45.286;9.900;2023-07-13T06:38:33;9.95;;;5.55;;
47804;SDS011;33568;45.286;9.900;2023-07-13T06:41:00;9.27;;;6.25;;
47804;SDS011;33568;45.286;9.900;2023-07-13T06:43:27;10.57;;;5.57;;
47804;SDS011;33568;45.286;9.900;2023-07-13T06:45:55;11.15;;;6.75;;
47804;SDS011;33568;45.286;9.900;2023-07-13T06:48:22;12.60;;;5.57;;
47804;SDS011;33568;45.286;9.900;2023-07-13T06:50:49;9.85;;;5.13;;
47804;SDS011;33568;45.286;9.900;2023-07-13T06:53:17;8.48;;;5.05;;
47804;SDS011;33568;45.286;9.900;2023-07-13T06:55:45;8.00;;;5.25;;
47804;SDS011;33568;45.286;9.900;2023-07-13T06:58:11;14.07;;;5.85;;
47804;SDS011;33568;45.286;9.900;2023-07-13T07:00:38;11.13;;;5.50;;
47804;SDS011;33568;45.286;9.900;2023-07-13T07:03:06;8.98;;;4.25;;
47804;SDS011;33568;45.286;9.900;2023-07-13T07:05:32;8.07;;;5.05;;
47804;SDS011;33568;45.286;9.900;2023-07-13T07:07:59;9.98;;;5.45;;
47804;SDS011;33568;45.286;9.900;2023-07-13T07:10:25;9.27;;;5.70;;
47804;SDS011;33568;45.286;9.900;2023-07-13T07:12:52;13.13;;;5.68;;
47804;SDS011;33568;45.286;9.900;2023-07-13T07:15:19;19.70;;;5.53;;
47804;SDS011;33568;45.286;9.900;2023-07-13T07:17:45;10.73;;;5.88;;
47804;SDS011;33568;45.286;9.900;2023-07-13T07:20:12;9.52;;;6.22;;
47804;SDS011;33568;45.286;9.900;2023-07-13T07:22:39;13.32;;;6.75;;
47804;SDS011;33568;45.286;9.900;2023-07-13T07:25:05;14.40;;;6.18;;
47804;SDS011;33568;45.286;9.900;2023-07-13T07:27:32;10.02;;;6.05;;
47804;SDS011;33568;45.286;9.900;2023-07-13T07:29:59;20.80;;;6.25;;
47804;SDS011;33568;45.286;9.900;2023-07-13T07:32:25;8.00;;;4.70;;
47804;SDS011;33568;45.286;9.900;2023-07-13T07:34:52;9.18;;;6.05;;
47804;SDS011;33568;45.286;9.900;2023-07-13T07:37:18;17.55;;;6.18;;
47804;SDS011;33568;45.286;9.900;2023-07-13T07:39:45;10.57;;;5.45;;
47804;SDS011;33568;45.286;9.900;2023-07-13T07:42:11;17.95;;;6.45;;
47804;SDS011;33568;45.286;9.900;2023-07-13T07:44:39;11.32;;;6.97;;
47804;SDS011;33568;45.286;9.900;2023-07-13T07:47:06;8.60;;;5.78;;
47804;SDS011;33568;45.286;9.900;2023-07-13T07:49:34;10.93;;;5.57;;
47804;SDS011;33568;45.286;9.900;2023-07-13T07:52:02;8.43;;;5.43;;
47804;SDS011;33568;45.286;9.900;2023-07-13T07:54:28;12.43;;;5.20;;
47804;SDS011;33568;45.286;9.900;2023-07-13T07:56:55;5.25;;;4.03;;
47804;SDS011;33568;45.286;9.900;2023-07-13T07:59:21;9.10;;;5.00;;
47804;SDS011;33568;45.286;9.900;2023-07-13T08:01:48;10.70;;;6.22;;
47804;SDS011;33568;45.286;9.900;2023-07-13T08:04:16;8.00;;;5.57;;
47804;SDS011;33568;45.286;9.900;2023-07-13T08:06:43;14.60;;;5.70;;
47804;SDS011;33568;45.286;9.900;2023-07-13T08:09:09;11.32;;;6.10;;
47804;SDS011;33568;45.286;9.900;2023-07-13T08:11:36;8.27;;;4.78;;
47804;SDS011;33568;45.286;9.900;2023-07-13T08:14:02;10.10;;;5.53;;
47804;SDS011;33568;45.286;9.900;2023-07-13T08:16:29;10.77;;;5.43;;
47804;SDS011;33568;45.286;9.900;2023-07-13T08:18:56;8.75;;;5.00;;
47804;SDS011;33568;45.286;9.900;2023-07-13T08:21:22;10.38;;;5.47;;
47804;SDS011;33568;45.286;9.900;2023-07-13T08:23:49;7.72;;;4.60;;
47804;SDS011;33568;45.286;9.900;2023-07-13T08:26:15;6.65;;;3.90;;
47804;SDS011;33568;45.286;9.900;2023-07-13T08:28:42;13.10;;;4.40;;
47804;SDS011;33568;45.286;9.900;2023-07-13T08:31:08;17.08;;;4.78;;
47804;SDS011;33568;45.286;9.900;2023-07-13T08:33:36;14.88;;;4.30;;
47804;SDS011;33568;45.286;9.900;2023-07-13T08:36:04;12.93;;;3.47;;
47804;SDS011;33568;45.286;9.900;2023-07-13T08:38:31;6.03;;;3.60;;
47804;SDS011;33568;45.286;9.900;2023-07-13T08:40:58;6.72;;;4.10;;
47804;SDS011;33568;45.286;9.900;2023-07-13T08:43:26;8.77;;;2.80;;
47804;SDS011;33568;45.286;9.900;2023-07-13T08:48:36;9.40;;;3.15;;
47804;SDS011;33568;45.286;9.900;2023-07-13T08:51:16;12.23;;;3.72;;
47804;SDS011;33568;45.286;9.900;2023-07-13T08:53:52;9.57;;;3.00;;
47804;SDS011;33568;45.286;9.900;2023-07-13T08:56:24;12.77;;;3.70;;
47804;SDS011;33568;45.286;9.900;2023-07-13T08:58:55;13.02;;;4.20;;
47804;SDS011;33568;45.286;9.900;2023-07-13T09:01:38;8.98;;;3.42;;
47804;SDS011;33568;45.286;9.900;2023-07-13T09:04:25;8.52;;;3.00;;
47804;SDS011;33568;45.286;9.900;2023-07-13T09:12:13;6.60;;;2.80;;
47804;SDS011;33568;45.286;9.900;2023-07-13T09:14:56;6.38;;;2.25;;
47804;SDS011;33568;45.286;9.900;2023-07-13T09:17:29;5.45;;;3.38;;
47804;SDS011;33568;45.286;9.900;2023-07-13T09:20:16;4.72;;;2.97;;
47804;SDS011;33568;45.286;9.900;2023-07-13T09:22:43;4.75;;;2.22;;
47804;SDS011;33568;45.286;9.900;2023-07-13T09:32:41;11.77;;;3.13;;
47804;SDS011;33568;45.286;9.900;2023-07-13T09:35:11;8.00;;;3.55;;
47804;SDS011;33568;45.286;9.900;2023-07-13T09:37:42;5.85;;;2.92;;
47804;SDS011;33568;45.286;9.900;2023-07-13T09:40:13;5.55;;;2.92;;
47804;SDS011;33568;45.286;9.900;2023-07-13T09:42:54;8.55;;;3.70;;
47804;SDS011;33568;45.286;9.900;2023-07-13T09:45:29;6.45;;;3.63;;
47804;SDS011;33568;45.286;9.900;2023-07-13T09:48:03;11.48;;;4.35;;
47804;SDS011;33568;45.286;9.900;2023-07-13T09:50:32;7.43;;;4.13;;
47804;SDS011;33568;45.286;9.900;2023-07-13T09:52:58;9.85;;;4.28;;
47804;SDS011;33568;45.286;9.900;2023-07-13T09:58:11;8.65;;;4.10;;
47804;SDS011;33568;45.286;9.900;2023-07-13T10:00:39;11.20;;;3.92;;
47804;SDS011;33568;45.286;9.900;2023-07-13T10:03:28;8.15;;;2.97;;
47804;SDS011;33568;45.286;9.900;2023-07-13T10:05:54;6.82;;;2.83;;
47804;SDS011;33568;45.286;9.900;2023-07-13T10:08:27;5.72;;;3.25;;
47804;SDS011;33568;45.286;9.900;2023-07-13T10:11:02;6.28;;;2.45;;
47804;SDS011;33568;45.286;9.900;2023-07-13T10:16:34;7.28;;;3.40;;
47804;SDS011;33568;45.286;9.900;2023-07-13T10:21:39;4.55;;;1.95;;
47804;SDS011;33568;45.286;9.900;2023-07-13T10:24:24;3.40;;;1.90;;
47804;SDS011;33568;45.286;9.900;2023-07-13T10:29:53;5.78;;;2.38;;
47804;SDS011;33568;45.286;9.900;2023-07-13T10:32:27;4.65;;;1.88;;
47804;SDS011;33568;45.286;9.900;2023-07-13T10:34:53;3.85;;;1.95;;
47804;SDS011;33568;45.286;9.900;2023-07-13T10:37:23;6.47;;;2.40;;
47804;SDS011;33568;45.286;9.900;2023-07-13T10:39:54;9.73;;;3.15;;
47804;SDS011;33568;45.286;9.900;2023-07-13T10:42:39;8.15;;;2.95;;
47804;SDS011;33568;45.286;9.900;2023-07-13T10:45:12;6.30;;;2.97;;
47804;SDS011;33568;45.286;9.900;2023-07-13T10:47:51;4.75;;;2.90;;
47804;SDS011;33568;45.286;9.900;2023-07-13T10:50:23;5.80;;;3.35;;
47804;SDS011;33568;45.286;9.900;2023-07-13T10:52:54;6.38;;;2.75;;
47804;SDS011;33568;45.286;9.900;2023-07-13T10:55:37;4.65;;;2.63;;
47804;SDS011;33568;45.286;9.900;2023-07-13T10:58:13;7.65;;;2.28;;
47804;SDS011;33568;45.286;9.900;2023-07-13T11:03:49;9.00;;;2.93;;
47804;SDS011;33568;45.286;9.900;2023-07-13T11:08:53;6.28;;;2.47;;
47804;SDS011;33568;45.286;9.900;2023-07-13T11:11:33;6.97;;;2.03;;
47804;SDS011;33568;45.286;9.900;2023-07-13T11:14:03;5.90;;;2.03;;
47804;SDS011;33568;45.286;9.900;2023-07-13T11:16:53;3.88;;;2.00;;
47804;SDS011;33568;45.286;9.900;2023-07-13T11:35:43;3.47;;;2.10;;
47804;SDS011;33568;45.286;9.900;2023-07-13T11:38:21;4.55;;;2.35;;
47804;SDS011;33568;45.286;9.900;2023-07-13T11:40:54;3.88;;;1.90;;
47804;SDS011;33568;45.286;9.900;2023-07-13T11:43:21;5.65;;;2.13;;
47804;SDS011;33568;45.286;9.900;2023-07-13T11:45:51;7.03;;;2.50;;
47804;SDS011;33568;45.286;9.900;2023-07-13T11:48:22;4.65;;;2.58;;
47804;SDS011;33568;45.286;9.900;2023-07-13T11:51:01;6.25;;;2.10;;
47804;SDS011;33568;45.286;9.900;2023-07-13T11:53:34;5.43;;;2.20;;
47804;SDS011;33568;45.286;9.900;2023-07-13T11:56:07;6.55;;;2.28;;
47804;SDS011;33568;45.286;9.900;2023-07-13T11:58:33;4.82;;;2.28;;
47804;SDS011;33568;45.286;9.900;2023-07-13T12:01:01;5.07;;;2.30;;
47804;SDS011;33568;45.286;9.900;2023-07-13T12:03:31;4.55;;;1.90;;
47804;SDS011;33568;45.286;9.900;2023-07-13T12:06:03;4.57;;;1.85;;
47804;SDS011;33568;45.286;9.900;2023-07-13T12:08:40;5.57;;;2.30;;
47804;SDS011;33568;45.286;9.900;2023-07-13T12:11:11;9.52;;;2.50;;
47804;SDS011;33568;45.286;9.900;2023-07-13T12:13:43;4.95;;;1.60;;
47804;SDS011;33568;45.286;9.900;2023-07-13T12:16:16;6.00;;;2.35;;
47804;SDS011;33568;45.286;9.900;2023-07-13T12:18:46;8.27;;;2.28;;
47804;SDS011;33568;45.286;9.900;2023-07-13T12:21:16;5.90;;;3.05;;
47804;SDS011;33568;45.286;9.900;2023-07-13T12:23:44;3.97;;;2.33;;
47804;SDS011;33568;45.286;9.900;2023-07-13T12:26:15;4.00;;;1.67;;
47804;SDS011;33568;45.286;9.900;2023-07-13T12:28:44;4.95;;;2.60;;
47804;SDS011;33568;45.286;9.900;2023-07-13T12:31:52;11.35;;;2.30;;
47804;SDS011;33568;45.286;9.900;2023-07-13T12:34:14;4.15;;;2.00;;
47804;SDS011;33568;45.286;9.900;2023-07-13T12:41:50;6.53;;;2.30;;
47804;SDS011;33568;45.286;9.900;2023-07-13T12:44:22;5.07;;;2.47;;
47804;SDS011;33568;45.286;9.900;2023-07-13T12:46:58;6.78;;;2.42;;
47804;SDS011;33568;45.286;9.900;2023-07-13T12:49:32;7.75;;;2.22;;
47804;SDS011;33568;45.286;9.900;2023-07-13T12:52:03;3.40;;;1.73;;
47804;SDS011;33568;45.286;9.900;2023-07-13T12:54:38;7.20;;;2.38;;
47804;SDS011;33568;45.286;9.900;2023-07-13T12:57:05;5.50;;;2.60;;
47804;SDS011;33568;45.286;9.900;2023-07-13T12:59:40;6.95;;;2.53;;
47804;SDS011;33568;45.286;9.900;2023-07-13T13:04:57;7.85;;;2.40;;
47804;SDS011;33568;45.286;9.900;2023-07-13T13:07:24;8.38;;;2.05;;
47804;SDS011;33568;45.286;9.900;2023-07-13T13:09:51;5.70;;;2.63;;
47804;SDS011;33568;45.286;9.900;2023-07-13T13:12:19;5.47;;;2.50;;
47804;SDS011;33568;45.286;9.900;2023-07-13T13:14:46;9.45;;;2.45;;
47804;SDS011;33568;45.286;9.900;2023-07-13T13:17:29;6.13;;;2.33;;
47804;SDS011;33568;45.286;9.900;2023-07-13T13:19:57;6.47;;;2.42;;
47804;SDS011;33568;45.286;9.900;2023-07-13T13:22:23;5.60;;;2.75;;
47804;SDS011;33568;45.286;9.900;2023-07-13T13:24:50;8.85;;;2.30;;
47804;SDS011;33568;45.286;9.900;2023-07-13T13:27:17;5.53;;;2.40;;
47804;SDS011;33568;45.286;9.900;2023-07-13T13:29:47;6.07;;;2.78;;
47804;SDS011;33568;45.286;9.900;2023-07-13T13:32:17;10.65;;;3.10;;
47804;SDS011;33568;45.286;9.900;2023-07-13T13:34:44;7.32;;;2.15;;
47804;SDS011;33568;45.286;9.900;2023-07-13T13:37:18;5.15;;;2.55;;
47804;SDS011;33568;45.286;9.900;2023-07-13T13:39:47;4.70;;;2.08;;
47804;SDS011;33568;45.286;9.900;2023-07-13T13:42:14;7.38;;;2.75;;
47804;SDS011;33568;45.286;9.900;2023-07-13T13:44:41;5.40;;;2.42;;
47804;SDS011;33568;45.286;9.900;2023-07-13T13:47:13;10.90;;;2.50;;
47804;SDS011;33568;45.286;9.900;2023-07-13T13:49:55;3.65;;;2.45;;
47804;SDS011;33568;45.286;9.900;2023-07-13T13:52:22;6.35;;;2.83;;
47804;SDS011;33568;45.286;9.900;2023-07-13T13:54:50;8.15;;;2.72;;
47804;SDS011;33568;45.286;9.900;2023-07-13T13:57:22;6.15;;;3.00;;
47804;SDS011;33568;45.286;9.900;2023-07-13T13:59:50;9.82;;;2.72;;
47804;SDS011;33568;45.286;9.900;2023-07-13T14:02:22;5.65;;;2.78;;
47804;SDS011;33568;45.286;9.900;2023-07-13T14:05:03;4.07;;;2.50;;
47804;SDS011;33568;45.286;9.900;2023-07-13T14:07:33;9.90;;;2.70;;
47804;SDS011;33568;45.286;9.900;2023-07-13T14:10:00;9.93;;;3.35;;
47804;SDS011;33568;45.286;9.900;2023-07-13T14:12:28;6.18;;;3.22;;
47804;SDS011;33568;45.286;9.900;2023-07-13T14:14:55;5.65;;;2.63;;
47804;SDS011;33568;45.286;9.900;2023-07-13T14:17:25;5.10;;;2.70;;
47804;SDS011;33568;45.286;9.900;2023-07-13T14:19:53;10.80;;;2.85;;
47804;SDS011;33568;45.286;9.900;2023-07-13T14:22:23;5.53;;;2.90;;
47804;SDS011;33568;45.286;9.900;2023-07-13T14:24:52;6.57;;;3.00;;
47804;SDS011;33568;45.286;9.900;2023-07-13T14:27:19;6.63;;;3.28;;
47804;SDS011;33568;45.286;9.900;2023-07-13T14:29:46;5.65;;;3.30;;
47804;SDS011;33568;45.286;9.900;2023-07-13T14:32:12;6.18;;;3.22;;
47804;SDS011;33568;45.286;9.900;2023-07-13T14:34:39;6.70;;;3.70;;
47804;SDS011;33568;45.286;9.900;2023-07-13T14:37:09;8.55;;;3.30;;
47804;SDS011;33568;45.286;9.900;2023-07-13T14:39:40;8.70;;;3.47;;
47804;SDS011;33568;45.286;9.900;2023-07-13T14:42:09;9.75;;;3.72;;
47804;SDS011;33568;45.286;9.900;2023-07-13T14:44:37;11.60;;;3.95;;
47804;SDS011;33568;45.286;9.900;2023-07-13T14:47:04;10.60;;;3.10;;
47804;SDS011;33568;45.286;9.900;2023-07-13T14:49:33;8.23;;;3.08;;
47804;SDS011;33568;45.286;9.900;2023-07-13T14:52:21;8.15;;;3.03;;
47804;SDS011;33568;45.286;9.900;2023-07-13T14:54:49;10.52;;;3.22;;
47804;SDS011;33568;45.286;9.900;2023-07-13T14:57:17;8.50;;;3.55;;
47804;SDS011;33568;45.286;9.900;2023-07-13T14:59:45;10.85;;;3.17;;
47804;SDS011;33568;45.286;9.900;2023-07-13T15:04:45;12.10;;;3.33;;
47804;SDS011;33568;45.286;9.900;2023-07-13T15:07:12;9.25;;;2.80;;
47804;SDS011;33568;45.286;9.900;2023-07-13T15:09:41;4.97;;;2.70;;
47804;SDS011;33568;45.286;9.900;2023-07-13T15:12:08;15.98;;;3.53;;
47804;SDS011;33568;45.286;9.900;2023-07-13T15:14:34;6.13;;;2.75;;
47804;SDS011;33568;45.286;9.900;2023-07-13T15:17:01;5.72;;;3.03;;
47804;SDS011;33568;45.286;9.900;2023-07-13T15:19:28;6.80;;;2.92;;
47804;SDS011;33568;45.286;9.900;2023-07-13T15:21:55;10.52;;;3.45;;
47804;SDS011;33568;45.286;9.900;2023-07-13T15:24:23;6.97;;;3.40;;
47804;SDS011;33568;45.286;9.900;2023-07-13T15:26:50;6.45;;;2.67;;
47804;SDS011;33568;45.286;9.900;2023-07-13T15:29:18;6.60;;;2.40;;
47804;SDS011;33568;45.286;9.900;2023-07-13T15:31:44;11.68;;;3.20;;
47804;SDS011;33568;45.286;9.900;2023-07-13T15:34:13;14.80;;;3.25;;
47804;SDS011;33568;45.286;9.900;2023-07-13T15:36:46;10.43;;;3.58;;
47804;SDS011;33568;45.286;9.900;2023-07-13T15:39:15;9.23;;;3.47;;
47804;SDS011;33568;45.286;9.900;2023-07-13T15:41:43;16.05;;;3.70;;
47804;SDS011;33568;45.286;9.900;2023-07-13T15:44:25;6.32;;;3.00;;
47804;SDS011;33568;45.286;9.900;2023-07-13T15:46:54;10.68;;;3.92;;
47804;SDS011;33568;45.286;9.900;2023-07-13T15:49:21;13.73;;;3.53;;
47804;SDS011;33568;45.286;9.900;2023-07-13T15:51:47;10.18;;;2.97;;
47804;SDS011;33568;45.286;9.900;2023-07-13T15:54:15;9.50;;;3.20;;
47804;SDS011;33568;45.286;9.900;2023-07-13T15:56:45;10.80;;;3.97;;
47804;SDS011;33568;45.286;9.900;2023-07-13T15:59:18;11.63;;;3.58;;